메인 페이지
METAR-TAF:

METAR-TAF

공항 :

조지 부시 인터콘티넨털 공항

휴스턴, 텍사스, 미국

위도: 29-59-33N, 경도: 095-21-50W, 고도: 29m

현재 날씨관측

예보는 29분 전, 06:53시(UTC)에 발표되었습니다.
4kt
온도 14°C
습도 88%
기압 1017 hPa
시정: 16.1km
고도 25000ft 상공 구름 조금

METAR: KIAH 210653Z 19004KT 10SM FEW250 14/12 A3002 RMK AO2 SLP164 T01390117

시각: 02:22 (07:22 UTC)

예보

예보는 2 시간 2분 전, 05:20시(UTC)에 발표되었습니다.
예보 대상 시간: 21일 06시부터 22일 12시까지 (UTC)
5kt
시정: 10km
맑음
21일 1500시부터 (UTC)
남남동12kt, 순간 최대 풍속 19kt
시정: 10km
맑음
22일 0200시부터 (UTC)
남남동8kt
시정: 10km
고도 5000ft 상공 구름 보통

TAF: KIAH 210520Z 2106/2212 18005KT P6SM SKC FM211500 16012G19KT P6SM SKC FM220200 15008KT P6SM SCT050

4,000개 이상의 공항 관측 자료 및 예보 (METAR 및 TAF 보고).

지도상에서 검색 가능한 기상관측소가 노란 점과 빨간 점으로 표시되어 있습니다.

기상관측소 명을 보려면 표시 위로 마우스를 이동하세요.

날씨 관측과 예보를 보려면 클릭하세요.

지도 변경 : 확대하려면 엑스 표시가 있는 녹색 버튼, 축소하려면 빼기 표시가 있는 녹색 버튼, 다음 페이지의 지도를 보려면 녹색 화살표를 클릭하세요.


METAR-TAF: